Terminal Aerodrome Forecast
Issued by NWS Wilmington, OH

Current Version | Previous Version | Graphics & Text | Print | Product List | Glossary On
Versions: 1 2 3 4 5 6 7 8 9 10 11 12 13 14 15 16 17 18 19 20
000
FTUS41 KILN 190500
TAFILN
TAF
KILN 190520Z 1906/2006 07006KT P6SM SKC
      TEMPO 1910/1912 00000KT 5SM BR
     FM191500 10010KT P6SM FEW050
     FM192300 13006KT P6SM SKC=

USA.gov is the U.S. government's official web portal to all federal, state and local government web resources and services.